Time;durP1;ratioP1;P1;durP2;ratioP2;P2;SDS_P1;SDS_P2;PMS_P1;PMS_P2;Temp;Humidity;BMP_temperature;BMP_pressure;BME280_temperature;BME280_humidity;BME280_pressure;Samples;Min_cycle;Max_cycle;Signal;HPM_P1;HPM_P2
2023/03/28 00:01:51;;;;;;;1.70;1.60;;;;;;;;;;5083939;28;20220;-68
2023/03/28 00:04:21;;;;;;;2.10;1.70;;;;;;;;;;5084517;28;20200;-68
2023/03/28 00:06:49;;;;;;;2.92;1.95;;;;;;;;;;5084086;28;20558;-68
2023/03/28 00:09:16;;;;;;;1.65;1.55;;;;;;;;;;5084290;28;20270;-70
2023/03/28 00:11:43;;;;;;;2.20;2.00;;;;;;;;;;5084002;28;20205;-68
2023/03/28 00:14:09;;;;;;;2.38;1.83;;;;;;;;;;5083722;28;20445;-68
2023/03/28 00:16:36;;;;;;;2.75;1.83;;;;;;;;;;5084326;28;20196;-68
2023/03/28 00:19:04;;;;;;;2.05;1.90;;;;;;;;;;5084237;28;20234;-68
2023/03/28 00:21:31;;;;;;;1.88;1.75;;;;;;;;;;5083965;28;20196;-68
2023/03/28 00:24:01;;;;;;;1.95;1.73;;;;;;;;;;5083903;28;20250;-68
2023/03/28 00:26:28;;;;;;;2.05;1.95;;;;;;;;;;5083883;28;20188;-68
2023/03/28 00:28:55;;;;;;;1.50;1.40;;;;;;;;;;5083664;28;20587;-68
2023/03/28 00:31:21;;;;;;;3.22;1.77;;;;;;;;;;5083578;28;20261;-68
2023/03/28 00:33:48;;;;;;;1.95;1.70;;;;;;;;;;5083582;28;20379;-68
2023/03/28 00:36:17;;;;;;;2.33;1.88;;;;;;;;;;5075303;28;20204;-68
2023/03/28 00:38:43;;;;;;;1.88;1.88;;;;;;;;;;5083410;28;20196;-68
2023/03/28 00:41:14;;;;;;;2.63;1.70;;;;;;;;;;5082937;28;20531;-68
2023/03/28 00:43:42;;;;;;;2.15;1.92;;;;;;;;;;5083729;28;20427;-68
2023/03/28 00:46:14;;;;;;;1.70;1.60;;;;;;;;;;5083178;28;20200;-68
2023/03/28 00:48:43;;;;;;;1.80;1.70;;;;;;;;;;5083309;28;20484;-69
2023/03/28 00:51:09;;;;;;;3.70;1.73;;;;;;;;;;5083198;28;20254;-68
2023/03/28 00:53:36;;;;;;;2.42;1.80;;;;;;;;;;5083253;28;20202;-70
2023/03/28 00:56:06;;;;;;;5.18;1.92;;;;;;;;;;5082786;28;20220;-70
2023/03/28 00:58:34;;;;;;;2.50;1.50;;;;;;;;;;5084004;28;20200;-70
2023/03/28 01:01:01;;;;;;;3.90;1.50;;;;;;;;;;5083307;28;20520;-69
2023/03/28 01:03:29;;;;;;;2.45;1.85;;;;;;;;;;5083432;28;20197;-69
2023/03/28 01:05:56;;;;;;;1.55;1.45;;;;;;;;;;5083663;28;20223;-69
2023/03/28 01:08:23;;;;;;;3.25;2.35;;;;;;;;;;5083035;28;20200;-69
2023/03/28 01:10:50;;;;;;;2.42;1.70;;;;;;;;;;5083161;28;20204;-69
2023/03/28 01:13:17;;;;;;;3.25;2.50;;;;;;;;;;5074537;28;20193;-69
2023/03/28 01:15:48;;;;;;;2.00;1.90;;;;;;;;;;5082835;28;20271;-69
2023/03/28 01:18:15;;;;;;;4.78;2.22;;;;;;;;;;5082747;28;20196;-69
2023/03/28 01:20:48;;;;;;;2.83;2.40;;;;;;;;;;5082664;28;20453;-69
2023/03/28 01:23:25;;;;;;;3.97;2.38;;;;;;;;;;5082556;28;20196;-69
2023/03/28 01:26:18;;;;;;;5.13;2.47;;;;;;;;;;5082622;28;20481;-69
2023/03/28 01:28:56;;;;;;;2.47;2.28;;;;;;;;;;5058084;28;20217;-69
2023/03/28 01:31:34;;;;;;;5.18;2.22;;;;;;;;;;5075016;28;20197;-67
2023/03/28 01:34:13;;;;;;;2.25;1.95;;;;;;;;;;5082837;28;20200;-69
2023/03/28 01:36:52;;;;;;;2.05;1.75;;;;;;;;;;5082882;28;20199;-68
2023/03/28 01:39:23;;;;;;;2.30;1.83;;;;;;;;;;5074639;28;20234;-69
2023/03/28 01:41:52;;;;;;;6.85;1.83;;;;;;;;;;5082411;28;20205;-69
2023/03/28 01:44:23;;;;;;;2.10;1.70;;;;;;;;;;5074243;28;20388;-69
2023/03/28 01:46:54;;;;;;;2.83;1.63;;;;;;;;;;5082288;28;20283;-69
2023/03/28 01:49:25;;;;;;;3.75;1.83;;;;;;;;;;5074311;28;20204;-69
2023/03/28 01:51:56;;;;;;;1.38;1.38;;;;;;;;;;5081979;28;20204;-69
2023/03/28 01:54:28;;;;;;;2.90;1.63;;;;;;;;;;5074249;28;20196;-69
2023/03/28 01:57:00;;;;;;;3.75;2.03;;;;;;;;;;5082104;28;20208;-70
2023/03/28 01:59:29;;;;;;;4.47;1.70;;;;;;;;;;5082077;28;20257;-67
2023/03/28 02:01:59;;;;;;;3.78;1.98;;;;;;;;;;5081861;28;20210;-68
2023/03/28 02:04:28;;;;;;;2.88;1.63;;;;;;;;;;5082036;28;20207;-69
2023/03/28 02:06:56;;;;;;;3.67;1.90;;;;;;;;;;5081569;28;20200;-69
2023/03/28 02:09:23;;;;;;;1.63;1.60;;;;;;;;;;5082149;28;20204;-67
2023/03/28 02:11:51;;;;;;;2.58;1.50;;;;;;;;;;5081782;28;20200;-69
2023/03/28 02:14:20;;;;;;;6.53;2.00;;;;;;;;;;5081867;28;20196;-69
2023/03/28 02:16:48;;;;;;;2.25;1.90;;;;;;;;;;5081715;28;20217;-69
2023/03/28 02:19:15;;;;;;;3.95;1.92;;;;;;;;;;5081950;28;20211;-69
2023/03/28 02:21:45;;;;;;;4.85;1.90;;;;;;;;;;5081904;28;20197;-69
2023/03/28 02:24:13;;;;;;;3.28;1.60;;;;;;;;;;5081877;28;20204;-69
2023/03/28 02:26:39;;;;;;;3.33;1.70;;;;;;;;;;5082171;28;20250;-69
2023/03/28 02:29:07;;;;;;;3.10;1.55;;;;;;;;;;5082006;28;20443;-69
2023/03/28 02:31:33;;;;;;;3.22;1.65;;;;;;;;;;5081425;28;20200;-69
2023/03/28 02:34:00;;;;;;;3.15;1.90;;;;;;;;;;5081624;28;20275;-69
2023/03/28 02:36:30;;;;;;;2.30;1.60;;;;;;;;;;5081592;28;20258;-69
2023/03/28 02:39:12;;;;;;;1.83;1.73;;;;;;;;;;5081518;28;20267;-69
2023/03/28 02:41:47;;;;;;;3.92;1.70;;;;;;;;;;5081846;28;20226;-69
2023/03/28 02:44:26;;;;;;;2.00;1.52;;;;;;;;;;5081783;28;20203;-69
2023/03/28 02:46:55;;;;;;;3.15;1.70;;;;;;;;;;5081561;28;20199;-69
2023/03/28 02:49:27;;;;;;;1.90;1.80;;;;;;;;;;5073344;28;20197;-69
2023/03/28 02:51:59;;;;;;;3.22;1.80;;;;;;;;;;5081408;28;20262;-69
2023/03/28 02:54:29;;;;;;;3.88;2.00;;;;;;;;;;5073659;28;20203;-69
2023/03/28 02:57:02;;;;;;;2.97;1.55;;;;;;;;;;5081486;28;20216;-69
2023/03/28 02:59:32;;;;;;;3.00;1.73;;;;;;;;;;5074211;28;20203;-69
2023/03/28 03:01:59;;;;;;;2.33;2.00;;;;;;;;;;5081395;28;20201;-69
2023/03/28 03:04:25;;;;;;;1.95;1.85;;;;;;;;;;5081487;28;20200;-69
2023/03/28 03:06:52;;;;;;;2.10;1.90;;;;;;;;;;5081136;28;20218;-69
2023/03/28 03:09:18;;;;;;;3.30;1.90;;;;;;;;;;5081277;28;20253;-69
2023/03/28 03:11:44;;;;;;;2.50;1.90;;;;;;;;;;5081258;28;20200;-69
2023/03/28 03:14:12;;;;;;;1.90;1.77;;;;;;;;;;5081632;28;20201;-69
2023/03/28 03:16:38;;;;;;;2.45;2.20;;;;;;;;;;5081349;28;20216;-69
2023/03/28 03:19:04;;;;;;;1.83;1.73;;;;;;;;;;5082027;28;20200;-69
2023/03/28 03:21:31;;;;;;;4.45;1.80;;;;;;;;;;5084518;28;20200;-69
2023/03/28 03:23:57;;;;;;;1.75;1.42;;;;;;;;;;5084724;28;20200;-69
2023/03/28 03:26:23;;;;;;;1.52;1.50;;;;;;;;;;5076511;28;20197;-69
2023/03/28 03:28:50;;;;;;;2.03;1.80;;;;;;;;;;5084648;28;20216;-69
2023/03/28 03:31:18;;;;;;;2.67;2.08;;;;;;;;;;5084651;28;20209;-69
2023/03/28 03:33:44;;;;;;;2.88;2.50;;;;;;;;;;5084628;28;20557;-69
2023/03/28 03:36:12;;;;;;;2.97;2.10;;;;;;;;;;5084826;28;20434;-69
2023/03/28 03:38:39;;;;;;;6.80;2.40;;;;;;;;;;5084708;28;20254;-69
2023/03/28 03:41:05;;;;;;;3.10;2.40;;;;;;;;;;5084434;28;20200;-69
2023/03/28 03:43:33;;;;;;;5.22;2.63;;;;;;;;;;5084318;28;20204;-69
2023/03/28 03:46:01;;;;;;;2.83;2.63;;;;;;;;;;5084435;28;20220;-69
2023/03/28 03:48:28;;;;;;;2.88;2.67;;;;;;;;;;5076331;28;20196;-69
2023/03/28 03:50:54;;;;;;;4.97;2.97;;;;;;;;;;5084174;28;20222;-69
2023/03/28 03:53:21;;;;;;;2.88;2.50;;;;;;;;;;5084316;28;20196;-69
2023/03/28 03:55:47;;;;;;;3.25;3.05;;;;;;;;;;5083923;28;20284;-68
2023/03/28 03:58:13;;;;;;;4.45;3.10;;;;;;;;;;5083898;28;20207;-68
2023/03/28 04:00:39;;;;;;;3.90;3.50;;;;;;;;;;5084237;28;20196;-68
2023/03/28 04:03:06;;;;;;;5.55;2.90;;;;;;;;;;5083708;28;20200;-68
2023/03/28 04:05:33;;;;;;;3.78;2.72;;;;;;;;;;5084282;28;20415;-68
2023/03/28 04:08:00;;;;;;;3.63;2.97;;;;;;;;;;5084045;28;20395;-68
2023/03/28 04:10:26;;;;;;;3.90;2.72;;;;;;;;;;5076049;28;20257;-68
2023/03/28 04:12:53;;;;;;;4.13;2.90;;;;;;;;;;5083664;28;20201;-68
2023/03/28 04:15:19;;;;;;;3.35;2.38;;;;;;;;;;5083672;28;20220;-68
2023/03/28 04:17:45;;;;;;;2.97;2.30;;;;;;;;;;5083723;28;20197;-68
2023/03/28 04:20:12;;;;;;;3.50;2.60;;;;;;;;;;5083906;28;20209;-68
2023/03/28 04:22:40;;;;;;;2.88;2.40;;;;;;;;;;5083611;28;20196;-68
2023/03/28 04:25:07;;;;;;;4.75;2.88;;;;;;;;;;5083949;28;20231;-68
2023/03/28 04:27:33;;;;;;;5.10;2.97;;;;;;;;;;5083625;28;20220;-68
2023/03/28 04:30:00;;;;;;;4.22;1.98;;;;;;;;;;5083533;28;20204;-68
2023/03/28 04:32:26;;;;;;;2.72;2.53;;;;;;;;;;5083360;28;20203;-68
2023/03/28 04:34:53;;;;;;;4.68;2.40;;;;;;;;;;5083471;28;20197;-69
2023/03/28 04:37:19;;;;;;;3.60;2.60;;;;;;;;;;5083454;28;20220;-69
2023/03/28 04:39:47;;;;;;;3.28;2.00;;;;;;;;;;5083291;28;20235;-69
2023/03/28 04:42:13;;;;;;;4.38;2.70;;;;;;;;;;5083152;28;20201;-69
2023/03/28 04:44:40;;;;;;;2.75;2.50;;;;;;;;;;5083301;28;20196;-69
2023/03/28 04:47:07;;;;;;;4.93;2.72;;;;;;;;;;5083364;28;20196;-69
2023/03/28 04:49:33;;;;;;;3.30;2.65;;;;;;;;;;5082905;28;20197;-69
2023/03/28 04:52:00;;;;;;;2.72;2.08;;;;;;;;;;5083063;28;20210;-69
2023/03/28 04:54:26;;;;;;;2.85;2.65;;;;;;;;;;5083042;28;20196;-69
2023/03/28 04:56:54;;;;;;;3.83;2.95;;;;;;;;;;5083150;28;20224;-69
2023/03/28 04:59:20;;;;;;;3.80;3.40;;;;;;;;;;5082816;28;20267;-69
2023/03/28 05:01:48;;;;;;;6.07;3.47;;;;;;;;;;5082963;28;20196;-69
2023/03/28 05:04:16;;;;;;;2.67;2.47;;;;;;;;;;5083104;28;20212;-69
2023/03/28 05:06:42;;;;;;;3.13;2.80;;;;;;;;;;5082904;28;20234;-69
2023/03/28 05:09:09;;;;;;;3.40;3.10;;;;;;;;;;5082762;28;20238;-69
2023/03/28 05:11:36;;;;;;;6.35;3.20;;;;;;;;;;5082454;28;20523;-69
2023/03/28 05:14:03;;;;;;;4.88;3.25;;;;;;;;;;5082412;28;20200;-69
2023/03/28 05:16:29;;;;;;;3.17;2.97;;;;;;;;;;5074204;28;20216;-69
2023/03/28 05:18:56;;;;;;;5.82;3.20;;;;;;;;;;5082785;28;20201;-69
2023/03/28 05:21:22;;;;;;;3.90;3.50;;;;;;;;;;5082158;28;20211;-69
2023/03/28 05:23:48;;;;;;;5.00;3.15;;;;;;;;;;5082189;28;20218;-69
2023/03/28 05:26:15;;;;;;;6.47;3.35;;;;;;;;;;5082216;28;20201;-69
2023/03/28 05:28:41;;;;;;;3.83;3.53;;;;;;;;;;5082279;28;20220;-69
2023/03/28 05:31:10;;;;;;;4.40;4.00;;;;;;;;;;5082430;28;20207;-69
2023/03/28 05:33:36;;;;;;;5.32;4.00;;;;;;;;;;5082371;28;20200;-69
2023/03/28 05:36:03;;;;;;;5.13;3.55;;;;;;;;;;5082426;28;20343;-69
2023/03/28 05:38:30;;;;;;;6.93;3.90;;;;;;;;;;5082067;28;20263;-69
2023/03/28 05:40:57;;;;;;;5.80;3.95;;;;;;;;;;5082219;28;20207;-69
2023/03/28 05:43:23;;;;;;;3.83;3.42;;;;;;;;;;5081618;28;20299;-69
2023/03/28 05:45:49;;;;;;;4.25;3.85;;;;;;;;;;5082448;28;20545;-69
2023/03/28 05:48:17;;;;;;;3.80;3.40;;;;;;;;;;5081938;28;20399;-69
2023/03/28 05:50:44;;;;;;;5.00;3.50;;;;;;;;;;5082171;28;20200;-69
2023/03/28 05:53:10;;;;;;;6.85;4.15;;;;;;;;;;5081735;28;20272;-68
2023/03/28 05:55:36;;;;;;;4.97;4.38;;;;;;;;;;5081784;28;20197;-68
2023/03/28 05:58:03;;;;;;;7.78;5.05;;;;;;;;;;5082032;28;20246;-68
2023/03/28 06:00:29;;;;;;;6.75;4.65;;;;;;;;;;5081777;28;20203;-68
2023/03/28 06:02:56;;;;;;;5.20;4.55;;;;;;;;;;5081641;28;20238;-68
2023/03/28 06:05:24;;;;;;;6.63;4.70;;;;;;;;;;5081897;28;20204;-69
2023/03/28 06:07:51;;;;;;;5.88;4.63;;;;;;;;;;5081816;28;20199;-69
2023/03/28 06:10:17;;;;;;;6.70;5.13;;;;;;;;;;5081452;28;20207;-69
2023/03/28 06:12:43;;;;;;;7.95;5.28;;;;;;;;;;5081586;28;20242;-69
2023/03/28 06:15:11;;;;;;;7.32;5.45;;;;;;;;;;5081720;28;20209;-69
2023/03/28 06:17:37;;;;;;;8.88;5.28;;;;;;;;;;5082040;28;20257;-69
2023/03/28 06:20:05;;;;;;;5.97;4.93;;;;;;;;;;5082036;28;20247;-69
2023/03/28 06:22:32;;;;;;;6.63;5.25;;;;;;;;;;5081624;28;20197;-69
2023/03/28 06:24:58;;;;;;;13.07;6.28;;;;;;;;;;5081671;28;20275;-69
2023/03/28 06:27:25;;;;;;;8.02;6.65;;;;;;;;;;5081525;28;20220;-69
2023/03/28 06:29:51;;;;;;;10.40;6.57;;;;;;;;;;5082213;28;20204;-69
2023/03/28 06:32:18;;;;;;;6.80;6.10;;;;;;;;;;5081637;28;20204;-69
2023/03/28 06:34:44;;;;;;;12.10;6.70;;;;;;;;;;5081905;28;20500;-69
2023/03/28 06:37:10;;;;;;;10.20;6.40;;;;;;;;;;5081423;28;20238;-69
2023/03/28 06:39:38;;;;;;;11.90;7.40;;;;;;;;;;5081576;28;20211;-69
2023/03/28 06:42:04;;;;;;;11.80;7.55;;;;;;;;;;5081936;28;20200;-69
2023/03/28 06:44:30;;;;;;;8.73;6.20;;;;;;;;;;5082301;28;20200;-69
2023/03/28 06:46:57;;;;;;;10.68;5.97;;;;;;;;;;5081748;28;20234;-69
2023/03/28 06:49:23;;;;;;;8.60;5.63;;;;;;;;;;5073104;28;20209;-69
2023/03/28 06:51:50;;;;;;;6.30;5.43;;;;;;;;;;5078470;28;20208;-69
2023/03/28 06:54:16;;;;;;;6.80;5.40;;;;;;;;;;5079282;28;20212;-66
2023/03/28 06:56:44;;;;;;;5.75;5.10;;;;;;;;;;5079237;28;20227;-59
2023/03/28 06:59:10;;;;;;;6.25;5.65;;;;;;;;;;5082116;28;20226;-60
2023/03/28 07:01:36;;;;;;;12.52;6.10;;;;;;;;;;5079827;28;20208;-60
2023/03/28 07:04:03;;;;;;;6.70;5.57;;;;;;;;;;5078935;28;20212;-60
2023/03/28 07:06:29;;;;;;;7.68;6.10;;;;;;;;;;5080986;28;20274;-61
2023/03/28 07:08:58;;;;;;;9.35;5.60;;;;;;;;;;5081729;28;20532;-61
2023/03/28 07:11:24;;;;;;;11.30;5.88;;;;;;;;;;5081337;28;20217;-60
2023/03/28 07:13:52;;;;;;;8.15;5.72;;;;;;;;;;5079419;28;20581;-61
2023/03/28 07:16:18;;;;;;;5.97;5.28;;;;;;;;;;5078957;28;20229;-60
2023/03/28 07:18:44;;;;;;;7.00;5.13;;;;;;;;;;5070665;28;20209;-60
2023/03/28 07:21:12;;;;;;;8.85;5.10;;;;;;;;;;5080676;28;20224;-61
2023/03/28 07:23:39;;;;;;;7.07;5.07;;;;;;;;;;5066019;28;20266;-61
2023/03/28 07:26:05;;;;;;;7.88;5.00;;;;;;;;;;5081044;28;20212;-59
2023/03/28 07:28:32;;;;;;;7.78;5.47;;;;;;;;;;5078544;28;20560;-59
2023/03/28 07:31:00;;;;;;;5.65;4.75;;;;;;;;;;5081208;28;20234;-59
2023/03/28 07:33:27;;;;;;;5.68;4.68;;;;;;;;;;5079568;28;20575;-59
2023/03/28 07:35:53;;;;;;;9.23;5.55;;;;;;;;;;5077488;28;20236;-59
2023/03/28 07:38:19;;;;;;;10.27;5.30;;;;;;;;;;5080943;28;20278;-59
2023/03/28 07:40:45;;;;;;;6.50;4.65;;;;;;;;;;5080980;28;20208;-60
2023/03/28 07:43:12;;;;;;;6.75;4.47;;;;;;;;;;5080846;28;20429;-61
2023/03/28 07:45:38;;;;;;;7.63;4.43;;;;;;;;;;5077481;28;20297;-60
2023/03/28 07:48:06;;;;;;;9.85;4.82;;;;;;;;;;5077280;28;20212;-60
2023/03/28 07:50:32;;;;;;;8.02;4.60;;;;;;;;;;5076051;28;20415;-59
2023/03/28 07:52:59;;;;;;;7.68;4.32;;;;;;;;;;5075743;28;20535;-59
2023/03/28 07:55:26;;;;;;;8.13;4.00;;;;;;;;;;5076084;28;20523;-61
2023/03/28 07:57:52;;;;;;;10.00;4.40;;;;;;;;;;5075354;28;20235;-59
2023/03/28 08:00:22;;;;;;;9.02;4.65;;;;;;;;;;5074810;28;20212;-59
2023/03/28 08:02:49;;;;;;;5.10;4.30;;;;;;;;;;5075599;28;20748;-61
2023/03/28 08:05:17;;;;;;;6.55;3.97;;;;;;;;;;5073943;28;20445;-61
2023/03/28 08:07:45;;;;;;;5.22;3.78;;;;;;;;;;5076188;28;20536;-61
2023/03/28 08:10:12;;;;;;;9.18;4.25;;;;;;;;;;5075661;28;20984;-59
2023/03/28 08:12:38;;;;;;;8.05;4.18;;;;;;;;;;5074670;28;20547;-59
2023/03/28 08:15:05;;;;;;;4.65;4.18;;;;;;;;;;5075135;28;20577;-59
2023/03/28 08:17:31;;;;;;;8.18;3.63;;;;;;;;;;5075618;28;20548;-59
2023/03/28 08:19:58;;;;;;;6.97;4.07;;;;;;;;;;5075490;28;20250;-60
2023/03/28 08:22:25;;;;;;;8.75;4.00;;;;;;;;;;5074091;28;20219;-59
2023/03/28 08:24:52;;;;;;;10.43;3.90;;;;;;;;;;5075120;28;20567;-59
2023/03/28 08:27:18;;;;;;;6.65;3.75;;;;;;;;;;5072080;28;20296;-60
2023/03/28 08:29:44;;;;;;;5.38;3.53;;;;;;;;;;5074147;28;20212;-60
2023/03/28 08:32:11;;;;;;;8.32;3.95;;;;;;;;;;5074705;28;20281;-60
2023/03/28 08:34:37;;;;;;;3.97;3.25;;;;;;;;;;5073985;28;20209;-60
2023/03/28 08:37:04;;;;;;;7.78;3.05;;;;;;;;;;5074008;28;20717;-60
2023/03/28 08:39:33;;;;;;;4.60;3.75;;;;;;;;;;5073876;28;20223;-59
2023/03/28 08:42:08;;;;;;;4.05;3.35;;;;;;;;;;5077148;28;20287;-60
2023/03/28 08:44:47;;;;;;;5.32;2.88;;;;;;;;;;5075831;28;20380;-59
2023/03/28 08:47:16;;;;;;;3.78;3.10;;;;;;;;;;5077714;28;20250;-59
2023/03/28 08:49:45;;;;;;;8.73;3.60;;;;;;;;;;5077779;28;20626;-59
2023/03/28 08:52:12;;;;;;;3.25;2.63;;;;;;;;;;5077254;28;20260;-59
2023/03/28 08:54:43;;;;;;;4.25;2.90;;;;;;;;;;5077619;28;20242;-59
2023/03/28 08:57:15;;;;;;;3.78;2.90;;;;;;;;;;5078092;28;20232;-59
2023/03/28 08:59:43;;;;;;;8.10;2.97;;;;;;;;;;5077421;28;20279;-59
2023/03/28 09:02:15;;;;;;;7.35;3.10;;;;;;;;;;5077734;28;20212;-59
2023/03/28 09:04:41;;;;;;;5.93;2.60;;;;;;;;;;5077835;28;20206;-59
2023/03/28 09:07:14;;;;;;;5.47;2.90;;;;;;;;;;5077345;28;20216;-59
2023/03/28 09:09:46;;;;;;;5.93;2.90;;;;;;;;;;5077025;28;20466;-58
2023/03/28 09:12:26;;;;;;;7.65;3.72;;;;;;;;;;5077047;28;20370;-59
2023/03/28 09:15:07;;;;;;;5.07;2.72;;;;;;;;;;5073418;28;20216;-60
2023/03/28 09:17:39;;;;;;;5.32;3.35;;;;;;;;;;5072925;28;20389;-58
2023/03/28 09:20:11;;;;;;;4.38;2.92;;;;;;;;;;5072713;28;20423;-59
2023/03/28 09:22:42;;;;;;;5.78;2.50;;;;;;;;;;5072709;28;20665;-59
2023/03/28 09:25:18;;;;;;;9.32;3.03;;;;;;;;;;5073962;28;20208;-59
2023/03/28 09:27:49;;;;;;;4.28;2.40;;;;;;;;;;5072427;28;20239;-59
2023/03/28 09:30:19;;;;;;;3.00;2.35;;;;;;;;;;5072273;28;20208;-59
2023/03/28 09:32:46;;;;;;;4.82;2.92;;;;;;;;;;5074214;28;20208;-59
2023/03/28 09:35:15;;;;;;;7.93;2.55;;;;;;;;;;5072833;28;20204;-59
2023/03/28 09:37:42;;;;;;;5.32;2.20;;;;;;;;;;5072157;28;20220;-59
2023/03/28 09:40:14;;;;;;;8.55;2.85;;;;;;;;;;5072984;28;20216;-60
2023/03/28 09:42:45;;;;;;;4.82;2.65;;;;;;;;;;5069651;28;20495;-60
2023/03/28 09:45:21;;;;;;;3.58;2.38;;;;;;;;;;5072798;28;20221;-59
2023/03/28 09:47:47;;;;;;;5.45;2.70;;;;;;;;;;5073982;28;20205;-59
2023/03/28 09:50:15;;;;;;;6.95;2.63;;;;;;;;;;5073029;28;20215;-59
2023/03/28 09:52:41;;;;;;;5.75;2.50;;;;;;;;;;5072875;28;20208;-59
2023/03/28 09:55:14;;;;;;;8.25;2.60;;;;;;;;;;5073917;28;20212;-59
2023/03/28 09:58:00;;;;;;;3.85;2.35;;;;;;;;;;5072933;28;20231;-59
2023/03/28 10:00:27;;;;;;;3.88;2.22;;;;;;;;;;5069217;28;20444;-59
2023/03/28 10:02:54;;;;;;;6.57;2.50;;;;;;;;;;5072468;28;20208;-59
2023/03/28 10:05:29;;;;;;;5.30;2.20;;;;;;;;;;5072593;28;20627;-60
2023/03/28 10:07:57;;;;;;;4.18;2.22;;;;;;;;;;5069327;28;20425;-60
2023/03/28 10:10:24;;;;;;;7.63;2.20;;;;;;;;;;5072337;28;20216;-59
2023/03/28 10:12:56;;;;;;;5.90;2.58;;;;;;;;;;5073141;28;20231;-60
2023/03/28 10:15:34;;;;;;;6.47;2.13;;;;;;;;;;5069378;28;20204;-59
2023/03/28 10:18:01;;;;;;;2.17;1.92;;;;;;;;;;5071552;28;20228;-60
2023/03/28 10:20:27;;;;;;;3.72;1.92;;;;;;;;;;5072561;28;20283;-60
2023/03/28 10:22:55;;;;;;;5.90;1.95;;;;;;;;;;5072406;28;20416;-60
2023/03/28 10:25:30;;;;;;;7.38;2.28;;;;;;;;;;5073697;28;20257;-60
2023/03/28 10:27:59;;;;;;;2.58;1.73;;;;;;;;;;5070673;28;20228;-59
2023/03/28 10:30:26;;;;;;;6.97;3.70;;;;;;;;;;5076576;28;20223;-60
2023/03/28 10:33:07;;;;;;;2.08;1.85;;;;;;;;;;5077231;28;20212;-60
2023/03/28 10:35:40;;;;;;;2.45;1.70;;;;;;;;;;5074358;28;20383;-60
2023/03/28 10:38:12;;;;;;;3.05;1.65;;;;;;;;;;5076233;28;20427;-60
2023/03/28 10:40:39;;;;;;;7.25;1.83;;;;;;;;;;5076462;28;20215;-60
2023/03/28 10:43:10;;;;;;;3.45;1.50;;;;;;;;;;5075945;28;20234;-60
2023/03/28 10:45:38;;;;;;;2.95;1.80;;;;;;;;;;5076050;28;20273;-61
2023/03/28 10:48:10;;;;;;;3.67;1.73;;;;;;;;;;5076815;28;20532;-60
2023/03/28 10:50:38;;;;;;;2.25;1.65;;;;;;;;;;5076394;28;20212;-59
2023/03/28 10:53:12;;;;;;;4.40;1.70;;;;;;;;;;5075758;28;20227;-59
2023/03/28 10:55:42;;;;;;;2.30;1.45;;;;;;;;;;5076223;28;20219;-60
2023/03/28 10:58:14;;;;;;;6.55;1.85;;;;;;;;;;5076109;28;20605;-60
2023/03/28 11:00:41;;;;;;;11.80;5.47;;;;;;;;;;5075959;28;20274;-62
2023/03/28 11:03:15;;;;;;;4.85;2.08;;;;;;;;;;5075712;28;20212;-59
2023/03/28 11:05:46;;;;;;;4.18;1.83;;;;;;;;;;5075167;28;20380;-59
2023/03/28 11:08:20;;;;;;;7.15;1.60;;;;;;;;;;5074888;28;20438;-59
2023/03/28 11:10:51;;;;;;;2.90;1.90;;;;;;;;;;5075225;28;20208;-62
2023/03/28 11:13:25;;;;;;;1.92;1.30;;;;;;;;;;5075358;28;20250;-59
2023/03/28 11:15:56;;;;;;;5.95;2.05;;;;;;;;;;5073110;28;20218;-59
2023/03/28 11:18:31;;;;;;;2.63;1.60;;;;;;;;;;5076314;28;20228;-59
2023/03/28 11:21:08;;;;;;;3.38;1.98;;;;;;;;;;5073262;28;20452;-59
2023/03/28 11:23:43;;;;;;;2.67;1.30;;;;;;;;;;5074856;28;20212;-59
2023/03/28 11:26:12;;;;;;;4.60;1.60;;;;;;;;;;5075737;28;20587;-59
2023/03/28 11:28:43;;;;;;;3.10;1.63;;;;;;;;;;5074338;28;20407;-59
2023/03/28 11:31:11;;;;;;;3.00;1.40;;;;;;;;;;5074097;28;20208;-59
2023/03/28 11:33:41;;;;;;;3.47;1.50;;;;;;;;;;5074627;28;20208;-59
2023/03/28 11:36:12;;;;;;;1.70;1.60;;;;;;;;;;5074769;28;20248;-60
2023/03/28 11:38:41;;;;;;;3.35;1.25;;;;;;;;;;5074992;28;20212;-59
2023/03/28 11:41:09;;;;;;;2.45;1.10;;;;;;;;;;5072436;28;20209;-60
2023/03/28 11:43:41;;;;;;;4.78;1.23;;;;;;;;;;5075072;28;20208;-58
2023/03/28 11:46:08;;;;;;;2.20;1.05;;;;;;;;;;5073873;28;20223;-58
2023/03/28 11:48:39;;;;;;;4.57;1.33;;;;;;;;;;5080526;28;20543;-59
2023/03/28 11:51:07;;;;;;;3.03;1.15;;;;;;;;;;5080783;28;20481;-59
2023/03/28 11:53:39;;;;;;;1.92;1.20;;;;;;;;;;5074126;28;20212;-59
2023/03/28 11:56:09;;;;;;;2.25;1.50;;;;;;;;;;5074545;28;20242;-59
2023/03/28 11:58:36;;;;;;;1.40;1.10;;;;;;;;;;5077282;28;20225;-61
2023/03/28 12:01:05;;;;;;;2.20;1.20;;;;;;;;;;5077813;28;20216;-61
2023/03/28 12:03:35;;;;;;;2.83;1.33;;;;;;;;;;5073490;28;20368;-61
2023/03/28 12:06:03;;;;;;;3.53;1.33;;;;;;;;;;5077587;28;20284;-59
2023/03/28 12:08:32;;;;;;;1.67;1.10;;;;;;;;;;5074264;28;20279;-60
2023/03/28 12:11:04;;;;;;;5.22;1.40;;;;;;;;;;5081849;28;20267;-60
2023/03/28 12:13:37;;;;;;;1.85;1.60;;;;;;;;;;5074776;28;20258;-59
2023/03/28 12:16:05;;;;;;;2.22;1.20;;;;;;;;;;5076221;28;20247;-60
2023/03/28 12:18:34;;;;;;;5.45;1.30;;;;;;;;;;5074464;28;20482;-59
2023/03/28 12:21:03;;;;;;;1.70;1.50;;;;;;;;;;5074317;28;20798;-60
2023/03/28 12:23:33;;;;;;;2.45;1.58;;;;;;;;;;5071604;28;20415;-60
2023/03/28 12:26:08;;;;;;;2.45;1.48;;;;;;;;;;5073979;28;20366;-60
2023/03/28 12:28:37;;;;;;;2.55;1.20;;;;;;;;;;5074068;28;20224;-60
2023/03/28 12:31:05;;;;;;;4.00;1.50;;;;;;;;;;5072047;28;20212;-60
2023/03/28 12:33:37;;;;;;;3.00;1.48;;;;;;;;;;5074253;28;20212;-60
2023/03/28 12:36:06;;;;;;;1.23;1.13;;;;;;;;;;5074626;28;20551;-60
2023/03/28 12:38:36;;;;;;;2.47;1.40;;;;;;;;;;5074203;28;20228;-60
2023/03/28 12:41:05;;;;;;;1.90;1.00;;;;;;;;;;5073689;28;20282;-60
2023/03/28 12:43:36;;;;;;;3.80;1.45;;;;;;;;;;5073887;28;20212;-60
2023/03/28 12:46:04;;;;;;;1.90;1.63;;;;;;;;;;5074093;28;20479;-58
2023/03/28 12:48:33;;;;;;;1.70;1.40;;;;;;;;;;5075114;28;20216;-59
2023/03/28 12:51:00;;;;;;;3.08;1.20;;;;;;;;;;5071770;28;20246;-59
2023/03/28 12:53:27;;;;;;;5.47;1.40;;;;;;;;;;5071569;28;20493;-59
2023/03/28 12:55:54;;;;;;;1.48;1.20;;;;;;;;;;5074688;28;20212;-59
2023/03/28 12:58:23;;;;;;;3.55;1.20;;;;;;;;;;5074239;28;20235;-59
2023/03/28 13:00:55;;;;;;;2.47;1.33;;;;;;;;;;5072997;28;20216;-59
2023/03/28 13:03:30;;;;;;;2.08;1.48;;;;;;;;;;5069913;28;20208;-60
2023/03/28 13:05:58;;;;;;;3.53;1.40;;;;;;;;;;5074720;28;20211;-59
2023/03/28 13:08:29;;;;;;;3.60;1.40;;;;;;;;;;5073649;28;20585;-60
2023/03/28 13:11:07;;;;;;;2.75;1.30;;;;;;;;;;5073096;28;20236;-60
2023/03/28 13:13:41;;;;;;;2.33;1.13;;;;;;;;;;5070866;28;20219;-59
2023/03/28 13:16:13;;;;;;;5.65;1.40;;;;;;;;;;5073950;28;20512;-59
2023/03/28 13:18:45;;;;;;;2.25;1.52;;;;;;;;;;5073869;28;20216;-61
2023/03/28 13:21:11;;;;;;;5.15;1.42;;;;;;;;;;5073371;28;20266;-60
2023/03/28 13:23:46;;;;;;;1.73;1.20;;;;;;;;;;5072778;28;20270;-59
2023/03/28 13:26:12;;;;;;;1.88;1.42;;;;;;;;;;5072498;28;20219;-60
2023/03/28 13:28:42;;;;;;;2.53;1.38;;;;;;;;;;5071956;28;20420;-60
2023/03/28 13:31:24;;;;;;;1.77;1.30;;;;;;;;;;5073186;28;20570;-60
2023/03/28 13:33:53;;;;;;;1.50;1.13;;;;;;;;;;5073007;28;20212;-60
2023/03/28 13:36:20;;;;;;;3.38;1.17;;;;;;;;;;5072563;28;20254;-60
2023/03/28 13:38:49;;;;;;;1.20;1.13;;;;;;;;;;5072983;28;20258;-60
2023/03/28 13:41:36;;;;;;;4.20;1.40;;;;;;;;;;5072908;28;20227;-61
2023/03/28 13:44:04;;;;;;;3.80;1.55;;;;;;;;;;5072346;28;20213;-61
2023/03/28 13:46:33;;;;;;;4.47;1.40;;;;;;;;;;5073034;28;20208;-61
2023/03/28 13:49:03;;;;;;;1.55;1.45;;;;;;;;;;5070981;28;20558;-60
2023/03/28 13:51:31;;;;;;;3.35;1.13;;;;;;;;;;5072237;28;20227;-62
2023/03/28 13:53:57;;;;;;;1.98;1.60;;;;;;;;;;5073996;28;20213;-61
2023/03/28 13:56:24;;;;;;;1.70;1.23;;;;;;;;;;5073612;28;20213;-60
2023/03/28 13:58:51;;;;;;;3.33;1.10;;;;;;;;;;5073153;28;20431;-60
2023/03/28 14:01:23;;;;;;;3.67;1.40;;;;;;;;;;5072126;28;20219;-60
2023/03/28 14:03:49;;;;;;;2.25;1.40;;;;;;;;;;5072712;28;20612;-61
2023/03/28 14:06:23;;;;;;;2.03;1.45;;;;;;;;;;5072178;28;20288;-60
2023/03/28 14:08:50;;;;;;;2.40;1.40;;;;;;;;;;5078917;28;20204;-62
2023/03/28 14:11:17;;;;;;;3.28;1.38;;;;;;;;;;5081496;28;20208;-62
2023/03/28 14:13:45;;;;;;;1.35;1.17;;;;;;;;;;5081583;28;20248;-62
2023/03/28 14:16:11;;;;;;;2.25;1.50;;;;;;;;;;5081966;28;20197;-61
2023/03/28 14:18:41;;;;;;;3.90;1.20;;;;;;;;;;5081726;28;20536;-62
2023/03/28 14:21:07;;;;;;;3.60;1.42;;;;;;;;;;5081710;28;20196;-62
2023/03/28 14:23:35;;;;;;;3.58;1.30;;;;;;;;;;5081909;28;20197;-62
2023/03/28 14:26:02;;;;;;;1.70;1.45;;;;;;;;;;5081717;28;20217;-61
2023/03/28 14:28:29;;;;;;;5.70;1.77;;;;;;;;;;5081874;28;20220;-62
2023/03/28 14:30:55;;;;;;;1.38;1.27;;;;;;;;;;5081555;28;20204;-62
2023/03/28 14:33:23;;;;;;;2.08;1.30;;;;;;;;;;5081573;28;20407;-62
2023/03/28 14:35:57;;;;;;;4.25;1.33;;;;;;;;;;5081708;28;20219;-62
2023/03/28 14:38:28;;;;;;;2.90;1.30;;;;;;;;;;5081553;28;20274;-62
2023/03/28 14:40:54;;;;;;;2.60;1.33;;;;;;;;;;5081802;28;20201;-62
2023/03/28 14:43:25;;;;;;;3.47;1.20;;;;;;;;;;5081689;28;20203;-62
2023/03/28 14:45:53;;;;;;;1.55;1.40;;;;;;;;;;5081503;28;20210;-62
2023/03/28 14:48:22;;;;;;;3.42;1.52;;;;;;;;;;5081789;28;20219;-62
2023/03/28 14:50:48;;;;;;;1.35;1.25;;;;;;;;;;5081623;28;20196;-62
2023/03/28 14:53:19;;;;;;;3.20;1.60;;;;;;;;;;5081316;28;20193;-62